Time;durP1;ratioP1;P1;durP2;ratioP2;P2;SDS_P1;SDS_P2;PMS_P1;PMS_P2;Temp;Humidity;BMP_temperature;BMP_pressure;BME280_temperature;BME280_humidity;BME280_pressure;Samples;Min_cycle;Max_cycle;Signal;HPM_P1;HPM_P2
2023/04/14 00:00:01;;;;;;;0.30;0.30;;;5.40;99.90;;;;;;4974064;28;20295;-45
2023/04/14 00:02:28;;;;;;;1.70;0.30;;;5.30;99.90;;;;;;4984011;28;20202;-45
2023/04/14 00:04:54;;;;;;;1.17;0.60;;;5.30;99.90;;;;;;4992018;28;20229;-45
2023/04/14 00:07:21;;;;;;;1.60;0.60;;;5.30;99.90;;;;;;5004970;28;20202;-45
2023/04/14 00:09:48;;;;;;;0.40;0.40;;;5.30;99.90;;;;;;5012808;28;20607;-44
2023/04/14 00:12:15;;;;;;;0.83;0.40;;;5.30;99.90;;;;;;5009683;28;20201;-45
2023/04/14 00:14:43;;;;;;;2.00;1.00;;;5.30;99.90;;;;;;4995931;28;20206;-43
2023/04/14 00:17:11;;;;;;;1.70;0.50;;;5.30;99.90;;;;;;4974196;28;20287;-45
2023/04/14 00:19:38;;;;;;;0.50;0.50;;;5.20;99.90;;;;;;4984282;28;20226;-44
2023/04/14 00:22:05;;;;;;;1.23;0.80;;;5.20;99.90;;;;;;5019103;23;20227;-45
2023/04/14 00:24:32;;;;;;;0.20;0.20;;;5.30;99.90;;;;;;5012447;28;20202;-45
2023/04/14 00:27:00;;;;;;;0.70;0.70;;;5.30;99.90;;;;;;5006697;28;20198;-45
2023/04/14 00:29:26;;;;;;;2.10;0.30;;;5.30;99.90;;;;;;5002334;28;20199;-46
2023/04/14 00:31:53;;;;;;;0.70;0.70;;;5.40;99.90;;;;;;4991985;28;20689;-45
2023/04/14 00:34:22;;;;;;;2.67;0.57;;;5.30;99.90;;;;;;4985845;28;20214;-45
2023/04/14 00:36:49;;;;;;;0.83;0.20;;;5.30;99.90;;;;;;5001403;28;20201;-45
2023/04/14 00:39:16;;;;;;;0.50;0.50;;;5.30;99.90;;;;;;4983609;28;20231;-44
2023/04/14 00:41:43;;;;;;;1.90;0.60;;;5.10;99.90;;;;;;4973746;28;20223;-45
2023/04/14 00:44:10;;;;;;;0.73;0.73;;;5.10;99.90;;;;;;4976542;28;20204;-45
2023/04/14 00:46:37;;;;;;;0.47;0.40;;;5.10;99.90;;;;;;4999624;28;20277;-45
2023/04/14 00:49:05;;;;;;;1.60;0.40;;;5.00;99.90;;;;;;5004485;28;20202;-45
2023/04/14 00:51:34;;;;;;;0.50;0.50;;;5.10;99.90;;;;;;4994533;28;20239;-44
2023/04/14 00:54:05;;;;;;;0.80;0.50;;;5.00;99.90;;;;;;4993384;28;20204;-45
2023/04/14 00:56:33;;;;;;;0.40;0.40;;;4.90;99.90;;;;;;4987888;28;20210;-45
2023/04/14 00:59:01;;;;;;;0.73;0.73;;;4.80;99.90;;;;;;4992860;28;20614;-45
2023/04/14 01:01:29;;;;;;;0.20;0.20;;;4.90;99.90;;;;;;4999522;28;20280;-45
2023/04/14 01:03:57;;;;;;;0.60;0.60;;;4.90;99.90;;;;;;5011919;28;20204;-45
2023/04/14 01:06:25;;;;;;;0.80;0.80;;;4.80;99.90;;;;;;4991839;28;20212;-45
2023/04/14 01:08:54;;;;;;;0.80;0.80;;;4.70;99.90;;;;;;4972624;28;20209;-45
2023/04/14 01:11:30;;;;;;;1.00;0.40;;;4.70;99.90;;;;;;4994930;28;20443;-45
2023/04/14 01:14:07;;;;;;;0.93;0.20;;;4.70;99.90;;;;;;4994105;28;20201;-45
2023/04/14 01:16:38;;;;;;;0.30;0.30;;;4.50;99.90;;;;;;4991066;28;20646;-45
2023/04/14 01:19:27;;;;;;;0.30;0.20;;;4.40;99.90;;;;;;4992194;28;20246;-45
2023/04/14 01:21:56;;;;;;;1.40;0.40;;;4.40;99.90;;;;;;4994492;28;20223;-45
2023/04/14 01:24:48;;;;;;;0.77;0.50;;;4.40;99.90;;;;;;4997695;28;20210;-45
2023/04/14 01:27:32;;;;;;;0.20;0.20;;;4.40;99.90;;;;;;5004113;28;20196;-45
2023/04/14 01:30:37;;;;;;;0.27;0.20;;;4.40;99.90;;;;;;5011658;28;20217;-45
2023/04/14 01:33:08;;;;;;;0.30;0.30;;;4.30;99.90;;;;;;4980371;28;20612;-45
2023/04/14 01:35:39;;;;;;;0.30;0.30;;;4.30;99.90;;;;;;5002299;28;20205;-46
2023/04/14 01:38:10;;;;;;;0.30;0.20;;;4.40;99.90;;;;;;5002342;28;20663;-46
2023/04/14 01:40:41;;;;;;;0.30;0.30;;;4.40;99.90;;;;;;4987321;28;20695;-45
2023/04/14 01:43:11;;;;;;;0.30;0.27;;;4.30;99.90;;;;;;4972788;28;20206;-45
2023/04/14 01:45:42;;;;;;;0.47;0.47;;;4.30;99.90;;;;;;4977306;28;20200;-45
2023/04/14 01:48:12;;;;;;;0.33;0.33;;;4.30;99.90;;;;;;4996889;28;20692;-45
2023/04/14 01:50:41;;;;;;;1.47;0.70;;;4.30;99.90;;;;;;4989518;28;20332;-45
2023/04/14 01:53:10;;;;;;;0.43;0.30;;;4.40;99.90;;;;;;4993288;28;20273;-45
2023/04/14 01:55:38;;;;;;;0.50;0.50;;;4.40;99.90;;;;;;4999670;28;20206;-46
2023/04/14 01:58:07;;;;;;;1.03;0.20;;;4.40;99.90;;;;;;4997894;28;20201;-45
2023/04/14 02:00:36;;;;;;;0.40;0.10;;;4.40;99.90;;;;;;5009905;28;20218;-45
2023/04/14 02:03:05;;;;;;;0.43;0.40;;;4.50;99.90;;;;;;4991473;28;20793;-45
2023/04/14 02:05:36;;;;;;;0.77;0.10;;;4.40;99.90;;;;;;4999781;28;20228;-46
2023/04/14 02:08:08;;;;;;;0.10;0.10;;;4.30;99.90;;;;;;4997947;28;20348;-45
2023/04/14 02:10:37;;;;;;;0.10;0.10;;;4.40;99.90;;;;;;4991891;28;20228;-45
2023/04/14 02:13:05;;;;;;;1.57;0.47;;;4.40;99.90;;;;;;5003284;28;20196;-45
2023/04/14 02:15:34;;;;;;;1.07;0.20;;;4.40;99.90;;;;;;4990906;28;20210;-45
2023/04/14 02:18:04;;;;;;;0.47;0.10;;;4.40;99.90;;;;;;4991921;28;20209;-46
2023/04/14 02:20:33;;;;;;;0.67;0.60;;;4.40;99.90;;;;;;4991484;28;20230;-44
2023/04/14 02:23:00;;;;;;;0.70;0.30;;;4.40;99.90;;;;;;5002788;28;20206;-45
2023/04/14 02:25:32;;;;;;;0.00;0.00;;;4.50;99.90;;;;;;4991912;28;20208;-45
2023/04/14 02:28:03;;;;;;;0.20;0.10;;;4.40;99.90;;;;;;5004879;28;20247;-45
2023/04/14 02:30:33;;;;;;;0.40;0.40;;;4.40;99.90;;;;;;5005435;28;20225;-45
2023/04/14 02:33:05;;;;;;;1.17;0.50;;;4.50;99.90;;;;;;4998422;28;20202;-46
2023/04/14 02:35:38;;;;;;;1.07;0.20;;;4.40;99.90;;;;;;5009178;28;20201;-45
2023/04/14 02:38:09;;;;;;;0.10;0.10;;;4.40;99.90;;;;;;5011125;28;20206;-45
2023/04/14 02:40:41;;;;;;;0.90;0.70;;;4.40;99.90;;;;;;4998185;28;20227;-46
2023/04/14 02:43:15;;;;;;;0.30;0.30;;;4.40;99.90;;;;;;4996113;28;20205;-45
2023/04/14 02:45:45;;;;;;;0.73;0.50;;;4.40;99.90;;;;;;4991180;28;20232;-45
2023/04/14 02:48:15;;;;;;;0.40;0.40;;;4.40;99.90;;;;;;4984408;28;20215;-45
2023/04/14 02:50:47;;;;;;;0.20;0.20;;;4.50;99.90;;;;;;4977992;28;20218;-45
2023/04/14 02:53:18;;;;;;;0.10;0.10;;;4.50;99.90;;;;;;4994642;28;20819;-45
2023/04/14 02:55:47;;;;;;;0.10;0.10;;;4.50;99.90;;;;;;4992611;28;20197;-45
2023/04/14 02:58:15;;;;;;;1.30;0.63;;;4.50;99.90;;;;;;5000703;28;20209;-44
2023/04/14 03:00:45;;;;;;;0.60;0.20;;;4.50;99.90;;;;;;4990396;28;20844;-45
2023/04/14 03:03:13;;;;;;;0.13;0.13;;;4.50;99.90;;;;;;5005826;28;20196;-45
2023/04/14 03:05:40;;;;;;;0.20;0.20;;;4.40;99.90;;;;;;4985732;28;20231;-45
2023/04/14 03:08:11;;;;;;;1.47;1.47;;;4.40;99.90;;;;;;4975939;28;20213;-45
2023/04/14 03:10:38;;;;;;;0.60;0.60;;;4.40;99.90;;;;;;4997214;28;20225;-45
2023/04/14 03:13:07;;;;;;;1.60;0.20;;;4.50;99.90;;;;;;5008362;28;20201;-45
2023/04/14 03:15:37;;;;;;;1.63;1.53;;;4.40;99.90;;;;;;4989235;28;20278;-45
2023/04/14 03:18:05;;;;;;;0.20;0.20;;;4.40;99.90;;;;;;4975063;28;20284;-45
2023/04/14 03:20:33;;;;;;;0.60;0.60;;;4.40;99.90;;;;;;4974269;28;20258;-45
2023/04/14 03:23:04;;;;;;;1.30;1.20;;;4.40;99.90;;;;;;4975265;28;20229;-45
2023/04/14 03:25:36;;;;;;;0.40;0.40;;;4.40;99.90;;;;;;4987962;28;20683;-45
2023/04/14 03:28:08;;;;;;;0.70;0.30;;;4.40;99.90;;;;;;5005434;28;20251;-45
2023/04/14 03:30:39;;;;;;;0.50;0.50;;;4.50;99.90;;;;;;5002263;28;20229;-44
2023/04/14 03:33:10;;;;;;;0.50;0.50;;;4.40;99.90;;;;;;5002991;28;20241;-45
2023/04/14 03:35:38;;;;;;;1.13;0.70;;;4.40;99.90;;;;;;4994021;28;20215;-45
2023/04/14 03:38:08;;;;;;;0.50;0.50;;;4.40;99.90;;;;;;4993715;28;20214;-45
2023/04/14 03:40:40;;;;;;;0.60;0.20;;;4.40;99.90;;;;;;4992156;28;20229;-46
2023/04/14 03:43:11;;;;;;;1.70;0.73;;;4.40;99.90;;;;;;5008122;28;20695;-45
2023/04/14 03:45:39;;;;;;;1.67;1.57;;;4.40;99.90;;;;;;5013338;28;20227;-46
2023/04/14 03:48:11;;;;;;;1.30;1.20;;;4.30;99.90;;;;;;4999772;28;20207;-45
2023/04/14 03:50:41;;;;;;;3.70;2.87;;;4.30;99.90;;;;;;4998233;28;20225;-46
2023/04/14 03:53:11;;;;;;;1.33;1.23;;;4.30;99.90;;;;;;5003533;28;20574;-45
2023/04/14 03:55:42;;;;;;;0.50;0.50;;;4.30;99.90;;;;;;5005441;28;20210;-45
2023/04/14 03:58:11;;;;;;;0.30;0.30;;;4.30;99.90;;;;;;4993418;28;20197;-45
2023/04/14 04:00:38;;;;;;;0.20;0.20;;;4.30;99.90;;;;;;5000489;28;20702;-45
2023/04/14 04:03:06;;;;;;;0.33;0.20;;;4.30;99.90;;;;;;4983636;28;20198;-45
2023/04/14 04:05:34;;;;;;;0.90;0.60;;;4.30;99.90;;;;;;4989568;28;20247;-45
2023/04/14 04:08:03;;;;;;;0.67;0.60;;;4.30;99.90;;;;;;4974108;28;20312;-44
2023/04/14 04:10:33;;;;;;;0.40;0.40;;;4.30;99.90;;;;;;4973706;28;20220;-45
2023/04/14 04:13:05;;;;;;;0.43;0.30;;;4.30;99.90;;;;;;4983883;28;20642;-46
2023/04/14 04:15:33;;;;;;;0.87;0.50;;;4.30;99.90;;;;;;4995838;28;20273;-46
2023/04/14 04:18:01;;;;;;;0.73;0.23;;;4.40;99.90;;;;;;5000116;28;20697;-45
2023/04/14 04:20:31;;;;;;;0.30;0.30;;;4.40;99.90;;;;;;5006617;28;20302;-45
2023/04/14 04:23:01;;;;;;;0.30;0.30;;;4.40;99.90;;;;;;4998000;28;20206;-45
2023/04/14 04:25:31;;;;;;;2.33;0.50;;;4.40;99.90;;;;;;4991804;28;20337;-45
2023/04/14 04:27:58;;;;;;;0.43;0.33;;;4.30;99.90;;;;;;4992951;28;20206;-45
2023/04/14 04:30:29;;;;;;;0.57;0.57;;;4.30;99.90;;;;;;4982606;28;20284;-46
2023/04/14 04:32:56;;;;;;;1.10;0.70;;;4.30;99.90;;;;;;4991140;28;20318;-45
2023/04/14 04:35:24;;;;;;;0.53;0.53;;;4.30;99.90;;;;;;4992861;28;20208;-46
2023/04/14 04:37:53;;;;;;;2.67;0.63;;;4.30;99.90;;;;;;4995830;28;20197;-45
2023/04/14 04:40:20;;;;;;;1.40;0.60;;;4.40;99.90;;;;;;4988717;28;20234;-45
2023/04/14 04:42:47;;;;;;;0.50;0.50;;;4.40;99.90;;;;;;5003997;28;20241;-45
2023/04/14 04:45:39;;;;;;;1.03;1.03;;;4.40;99.90;;;;;;5012420;28;20322;-45
2023/04/14 04:48:08;;;;;;;2.27;1.23;;;4.40;99.90;;;;;;4981285;28;20227;-45
2023/04/14 04:50:35;;;;;;;1.57;1.57;;;4.40;99.90;;;;;;4991509;28;20228;-45
2023/04/14 04:53:01;;;;;;;0.80;0.80;;;4.50;99.90;;;;;;4991457;28;20763;-46
2023/04/14 04:55:28;;;;;;;2.73;0.87;;;4.50;99.90;;;;;;5004111;28;20196;-45
2023/04/14 04:57:55;;;;;;;1.00;0.80;;;4.50;99.90;;;;;;4984299;28;20754;-45
2023/04/14 05:00:24;;;;;;;2.73;1.17;;;4.50;99.90;;;;;;4992394;28;20221;-45
2023/04/14 05:02:52;;;;;;;1.80;1.17;;;4.60;99.90;;;;;;4987066;28;20211;-45
2023/04/14 05:05:20;;;;;;;1.93;1.60;;;4.60;99.90;;;;;;4987262;28;20209;-45
2023/04/14 05:07:47;;;;;;;1.83;1.63;;;4.60;99.90;;;;;;4990730;28;20199;-45
2023/04/14 05:10:14;;;;;;;1.47;1.43;;;4.60;99.90;;;;;;4994322;28;20259;-45
2023/04/14 05:12:41;;;;;;;1.77;1.67;;;4.70;99.90;;;;;;4996155;28;20279;-46
2023/04/14 05:15:08;;;;;;;1.17;1.00;;;4.80;99.90;;;;;;4986570;28;20862;-45
2023/04/14 05:17:35;;;;;;;2.23;1.20;;;4.90;99.90;;;;;;4989714;28;20692;-45
2023/04/14 05:20:04;;;;;;;2.60;2.30;;;5.00;99.90;;;;;;5008473;28;20693;-45
2023/04/14 05:22:32;;;;;;;3.43;3.23;;;4.80;99.90;;;;;;4977182;28;20634;-46
2023/04/14 05:24:59;;;;;;;1.33;1.33;;;4.80;99.90;;;;;;5003491;28;20203;-45
2023/04/14 05:27:26;;;;;;;3.50;2.23;;;4.70;99.90;;;;;;4983169;28;20233;-44
2023/04/14 05:29:53;;;;;;;2.43;2.07;;;4.70;99.90;;;;;;4999667;28;20257;-46
2023/04/14 05:32:20;;;;;;;2.30;1.50;;;4.70;99.90;;;;;;4989688;28;20763;-45
2023/04/14 05:34:47;;;;;;;4.57;4.17;;;4.80;99.90;;;;;;4986395;28;20201;-46
2023/04/14 05:37:14;;;;;;;4.53;4.23;;;4.80;99.90;;;;;;4993868;28;20629;-45
2023/04/14 05:39:42;;;;;;;4.23;2.00;;;4.90;99.90;;;;;;4995745;28;20264;-46
2023/04/14 05:42:09;;;;;;;3.90;2.10;;;4.90;99.90;;;;;;4991017;28;20679;-46
2023/04/14 05:44:36;;;;;;;3.70;3.43;;;4.80;99.90;;;;;;4989704;28;20210;-45
2023/04/14 05:47:03;;;;;;;3.23;2.97;;;4.90;99.90;;;;;;4987301;28;20740;-45
2023/04/14 05:49:30;;;;;;;3.27;2.53;;;4.90;99.90;;;;;;4999101;28;20202;-45
2023/04/14 05:51:57;;;;;;;2.07;1.97;;;4.90;99.90;;;;;;4999531;28;20235;-46
2023/04/14 05:54:24;;;;;;;3.27;2.97;;;4.90;99.90;;;;;;4978100;28;20265;-45
2023/04/14 05:56:52;;;;;;;1.67;1.57;;;4.90;99.90;;;;;;4995197;28;20672;-45
2023/04/14 05:59:19;;;;;;;3.10;1.87;;;4.90;99.90;;;;;;4986277;28;20203;-46
2023/04/14 06:01:46;;;;;;;2.50;1.63;;;5.00;99.90;;;;;;4991811;28;20221;-46
2023/04/14 06:04:14;;;;;;;1.87;1.77;;;5.10;99.90;;;;;;4992361;28;20219;-45
2023/04/14 06:06:41;;;;;;;1.63;1.27;;;5.10;99.90;;;;;;4997004;28;20197;-45
2023/04/14 06:09:08;;;;;;;3.80;1.73;;;5.20;99.90;;;;;;4999434;28;20260;-45
2023/04/14 06:11:36;;;;;;;1.00;1.00;;;5.30;99.90;;;;;;4987140;28;20245;-45
2023/04/14 06:14:06;;;;;;;1.23;1.23;;;5.40;99.90;;;;;;4987274;28;20657;-44
2023/04/14 06:16:33;;;;;;;1.10;1.00;;;5.50;99.90;;;;;;4990152;28;20234;-46
2023/04/14 06:19:00;;;;;;;1.33;1.33;;;5.50;99.90;;;;;;4992816;28;20209;-45
2023/04/14 06:21:27;;;;;;;5.50;1.23;;;5.50;99.90;;;;;;5006893;23;20230;-45
2023/04/14 06:23:54;;;;;;;2.83;1.17;;;5.60;99.90;;;;;;4998743;28;20222;-48
2023/04/14 06:26:21;;;;;;;1.20;1.10;;;5.60;99.90;;;;;;5014473;28;20216;-45
2023/04/14 06:28:48;;;;;;;1.30;1.20;;;5.60;99.90;;;;;;4999507;28;20197;-49
2023/04/14 06:31:16;;;;;;;1.00;1.00;;;5.60;99.90;;;;;;5006476;28;20729;-48
2023/04/14 06:33:43;;;;;;;1.27;0.97;;;5.70;99.90;;;;;;5014374;28;20225;-48
2023/04/14 06:36:10;;;;;;;1.07;0.93;;;5.90;99.90;;;;;;4999652;28;20204;-48
2023/04/14 06:38:40;;;;;;;3.47;1.73;;;6.00;99.90;;;;;;4997574;28;20238;-48
2023/04/14 06:41:07;;;;;;;1.50;0.90;;;6.10;99.90;;;;;;4985570;28;20241;-47
2023/04/14 06:43:35;;;;;;;1.53;0.90;;;6.20;99.90;;;;;;4987101;28;20211;-48
2023/04/14 06:46:02;;;;;;;2.07;1.23;;;6.10;99.90;;;;;;4990055;28;20209;-48
2023/04/14 06:48:30;;;;;;;2.60;1.30;;;6.10;99.90;;;;;;4993087;28;20268;-48
2023/04/14 06:50:57;;;;;;;2.80;1.27;;;6.20;99.90;;;;;;4989001;28;20272;-48
2023/04/14 06:53:24;;;;;;;1.50;1.40;;;6.20;99.90;;;;;;5001345;28;20230;-47
2023/04/14 06:55:57;;;;;;;1.70;1.60;;;6.30;99.90;;;;;;4994087;28;20281;-47
2023/04/14 06:58:25;;;;;;;1.47;1.10;;;6.40;99.90;;;;;;4975362;28;20256;-47
2023/04/14 07:00:55;;;;;;;1.60;1.50;;;6.40;99.90;;;;;;4985049;28;20231;-48
2023/04/14 07:03:22;;;;;;;2.23;1.30;;;6.50;99.90;;;;;;4991388;28;20205;-49
2023/04/14 07:05:51;;;;;;;2.73;1.27;;;6.50;99.90;;;;;;5012916;28;20208;-48
2023/04/14 07:08:18;;;;;;;4.80;4.40;;;6.50;99.90;;;;;;4982071;28;20256;-48
2023/04/14 07:10:45;;;;;;;4.10;2.30;;;6.60;99.90;;;;;;4993002;28;20221;-48
2023/04/14 07:13:12;;;;;;;4.00;2.57;;;6.50;99.90;;;;;;4994185;28;20217;-47
2023/04/14 07:15:45;;;;;;;3.93;2.83;;;6.60;99.90;;;;;;5004149;28;20208;-48
2023/04/14 07:18:12;;;;;;;6.40;2.50;;;6.70;99.90;;;;;;5013422;28;20204;-48
2023/04/14 07:20:39;;;;;;;3.83;2.50;;;6.60;99.90;;;;;;5002473;28;20343;-48
2023/04/14 07:23:07;;;;;;;2.63;2.37;;;6.60;99.90;;;;;;4994764;28;20197;-48
2023/04/14 07:25:35;;;;;;;7.07;2.90;;;6.50;99.90;;;;;;5002042;28;20206;-48
2023/04/14 07:28:02;;;;;;;6.83;3.63;;;6.50;99.90;;;;;;4995194;28;20196;-45
2023/04/14 07:30:29;;;;;;;4.30;2.00;;;6.50;99.90;;;;;;5005158;28;20249;-48
2023/04/14 07:32:56;;;;;;;5.03;2.20;;;6.50;99.90;;;;;;5006542;28;20276;-47
2023/04/14 07:35:24;;;;;;;5.20;1.90;;;6.50;99.90;;;;;;5004143;28;20208;-47
2023/04/14 07:37:51;;;;;;;3.10;2.27;;;6.60;99.90;;;;;;4992968;28;20207;-47
2023/04/14 07:40:20;;;;;;;5.43;2.53;;;6.60;99.90;;;;;;5001487;28;20662;-48
2023/04/14 07:42:47;;;;;;;3.90;2.13;;;6.70;99.90;;;;;;5014085;28;20247;-46
2023/04/14 07:45:14;;;;;;;8.77;2.30;;;6.90;99.90;;;;;;5001494;28;20297;-46
2023/04/14 07:47:41;;;;;;;4.13;2.83;;;7.00;99.90;;;;;;4998667;28;20205;-46
2023/04/14 07:50:09;;;;;;;2.80;1.73;;;7.10;99.90;;;;;;4994457;28;20205;-45
2023/04/14 07:52:36;;;;;;;4.80;3.23;;;7.20;99.90;;;;;;5008477;28;20321;-46
2023/04/14 07:55:04;;;;;;;3.87;3.57;;;7.40;99.90;;;;;;5012523;28;20766;-45
2023/04/14 07:57:34;;;;;;;3.33;2.00;;;7.50;99.90;;;;;;4993850;28;20261;-48
2023/04/14 08:00:01;;;;;;;3.10;1.93;;;7.70;99.90;;;;;;5004306;28;20249;-46
2023/04/14 08:02:28;;;;;;;5.57;2.30;;;7.70;99.90;;;;;;4993032;28;20273;-45
2023/04/14 08:04:55;;;;;;;3.53;3.23;;;7.80;99.90;;;;;;4996905;28;20205;-47
2023/04/14 08:07:22;;;;;;;10.03;3.83;;;7.90;99.90;;;;;;4990804;28;20231;-46
2023/04/14 08:09:49;;;;;;;4.93;3.23;;;7.90;99.90;;;;;;4993270;28;20216;-47
2023/04/14 08:12:16;;;;;;;3.67;2.53;;;8.00;99.90;;;;;;4993249;28;20581;-46
2023/04/14 08:14:46;;;;;;;5.87;4.10;;;8.20;99.90;;;;;;4993331;28;20644;-46
2023/04/14 08:17:13;;;;;;;8.80;3.43;;;8.20;99.90;;;;;;4991969;28;20205;-48
2023/04/14 08:19:40;;;;;;;4.90;2.90;;;8.20;99.90;;;;;;4993447;28;20210;-46
2023/04/14 08:22:07;;;;;;;8.97;3.20;;;8.30;99.90;;;;;;4992955;28;20238;-48
2023/04/14 08:24:34;;;;;;;6.57;3.57;;;8.40;99.90;;;;;;4993363;28;20202;-46
2023/04/14 08:27:02;;;;;;;8.50;3.23;;;8.50;99.90;;;;;;4997901;28;20876;-47
2023/04/14 08:29:29;;;;;;;4.63;2.20;;;8.50;99.90;;;;;;5004341;28;20214;-46
2023/04/14 08:31:57;;;;;;;10.30;3.57;;;8.50;99.90;;;;;;5012522;28;20225;-46
2023/04/14 08:34:24;;;;;;;6.07;2.60;;;8.30;99.90;;;;;;5012396;28;20281;-47
2023/04/14 08:36:51;;;;;;;6.90;2.73;;;8.30;99.90;;;;;;5002482;28;20196;-46
2023/04/14 08:39:18;;;;;;;3.87;3.50;;;8.30;99.90;;;;;;5004134;28;20555;-46
2023/04/14 08:41:45;;;;;;;7.93;2.47;;;8.40;99.90;;;;;;5012640;28;20233;-47
2023/04/14 08:44:12;;;;;;;4.53;2.83;;;8.40;99.90;;;;;;5012683;28;20201;-46
2023/04/14 08:46:39;;;;;;;4.73;2.00;;;8.30;99.90;;;;;;4996488;28;20203;-46
2023/04/14 08:49:16;;;;;;;4.37;2.80;;;8.30;99.90;;;;;;5003642;28;20673;-47
2023/04/14 08:51:45;;;;;;;5.60;2.80;;;8.10;99.90;;;;;;5012450;28;20225;-48
2023/04/14 08:54:12;;;;;;;7.70;2.70;;;8.20;99.90;;;;;;5005740;28;20217;-48
2023/04/14 08:56:41;;;;;;;5.60;1.70;;;8.20;99.90;;;;;;5004057;28;20267;-48
2023/04/14 08:59:10;;;;;;;5.20;2.23;;;8.30;99.90;;;;;;5011771;28;20205;-48
2023/04/14 09:01:38;;;;;;;3.83;2.93;;;8.50;99.90;;;;;;5011955;28;20260;-48
2023/04/14 09:04:06;;;;;;;7.87;1.80;;;8.50;99.90;;;;;;5006110;28;20236;-48
2023/04/14 09:06:35;;;;;;;6.90;3.37;;;8.60;99.90;;;;;;5003886;28;20206;-46
2023/04/14 09:09:05;;;;;;;3.60;1.27;;;8.60;99.90;;;;;;5012129;28;20215;-46
2023/04/14 09:11:33;;;;;;;3.90;1.80;;;8.70;99.90;;;;;;4978616;28;20709;-47
2023/04/14 09:14:00;;;;;;;3.63;1.03;;;8.70;99.90;;;;;;4983500;28;20213;-46
2023/04/14 09:16:28;;;;;;;5.93;1.67;;;8.80;99.90;;;;;;5003862;28;20757;-46
2023/04/14 09:18:56;;;;;;;5.83;1.73;;;8.90;99.90;;;;;;5012035;28;20631;-46
2023/04/14 09:21:26;;;;;;;7.13;2.23;;;9.10;99.90;;;;;;5011583;28;20673;-46
2023/04/14 09:23:53;;;;;;;5.40;1.60;;;9.30;99.90;;;;;;5010324;28;20208;-46
2023/04/14 09:26:20;;;;;;;2.03;1.10;;;9.40;99.90;;;;;;5011166;28;20671;-46
2023/04/14 09:28:47;;;;;;;4.13;1.00;;;9.40;99.90;;;;;;5019458;28;20208;-46
2023/04/14 09:31:13;;;;;;;6.07;1.20;;;9.50;99.90;;;;;;5019672;28;20644;-46
2023/04/14 09:33:46;;;;;;;4.97;1.07;;;9.80;99.90;;;;;;5006183;28;20281;-46
2023/04/14 09:36:19;;;;;;;3.93;1.60;;;10.20;99.90;;;;;;5003508;28;20198;-46
2023/04/14 09:38:48;;;;;;;6.43;1.33;;;10.30;99.90;;;;;;4980640;28;20191;-47
2023/04/14 09:41:21;;;;;;;1.90;1.10;;;10.40;99.90;;;;;;4984326;28;20309;-46
2023/04/14 09:43:48;;;;;;;10.90;1.90;;;10.40;99.90;;;;;;4989480;28;20199;-49
2023/04/14 09:46:15;;;;;;;2.97;1.17;;;10.20;99.90;;;;;;4996437;28;20192;-45
2023/04/14 09:48:53;;;;;;;4.40;1.57;;;10.40;99.90;;;;;;5011535;28;20201;-46
2023/04/14 09:51:26;;;;;;;5.03;1.00;;;11.00;99.90;;;;;;5011323;28;20240;-46
2023/04/14 09:54:01;;;;;;;6.27;1.30;;;11.80;99.90;;;;;;5007109;28;20216;-46
2023/04/14 09:56:28;;;;;;;8.80;1.20;;;12.70;99.90;;;;;;5001197;28;20207;-46
2023/04/14 09:58:58;;;;;;;7.43;1.13;;;12.50;99.90;;;;;;4996828;28;20195;-47
2023/04/14 10:01:28;;;;;;;6.47;1.00;;;13.10;99.90;;;;;;4992080;28;20234;-46
2023/04/14 10:03:55;;;;;;;9.67;1.83;;;13.90;99.90;;;;;;5007683;28;20568;-46
2023/04/14 10:06:24;;;;;;;4.73;1.37;;;14.60;99.90;;;;;;5015824;28;20209;-46
2023/04/14 10:08:52;;;;;;;4.77;1.30;;;15.00;99.90;;;;;;5015075;28;20203;-47
2023/04/14 10:11:22;;;;;;;5.63;0.90;;;15.70;99.90;;;;;;5008502;28;20280;-46
2023/04/14 10:13:50;;;;;;;3.33;1.10;;;16.30;99.90;;;;;;4998651;28;20461;-46
2023/04/14 10:16:17;;;;;;;4.63;1.03;;;15.90;99.90;;;;;;4998410;28;20285;-46
2023/04/14 10:18:44;;;;;;;3.40;1.10;;;16.50;99.90;;;;;;4995424;28;20274;-46
2023/04/14 10:21:11;;;;;;;2.13;0.90;;;16.30;99.90;;;;;;4995483;28;20231;-47
2023/04/14 10:23:40;;;;;;;5.50;1.60;;;16.40;99.90;;;;;;4996953;28;20204;-46
2023/04/14 10:26:08;;;;;;;5.73;1.37;;;15.20;99.90;;;;;;4996164;28;20649;-46
2023/04/14 10:28:44;;;;;;;1.23;0.97;;;14.90;99.90;;;;;;4994917;28;20288;-47
2023/04/14 10:31:14;;;;;;;4.20;1.20;;;14.30;99.90;;;;;;4995109;28;20226;-46
2023/04/14 10:33:42;;;;;;;2.13;1.13;;;13.10;99.90;;;;;;4999340;28;20314;-46
2023/04/14 10:36:09;;;;;;;1.97;1.00;;;12.60;99.90;;;;;;5009969;28;20202;-46
2023/04/14 10:38:44;;;;;;;3.07;0.93;;;13.50;99.90;;;;;;5014599;28;20222;-46
2023/04/14 10:41:12;;;;;;;3.67;1.10;;;14.20;99.90;;;;;;5003255;28;20697;-47
2023/04/14 10:43:41;;;;;;;4.37;1.13;;;15.00;99.90;;;;;;4994103;28;20204;-46
2023/04/14 10:46:09;;;;;;;3.90;1.50;;;15.40;99.90;;;;;;4992408;28;20207;-46
2023/04/14 10:48:41;;;;;;;1.40;0.80;;;14.80;99.90;;;;;;4994922;28;20199;-46
2023/04/14 10:51:10;;;;;;;3.30;1.50;;;14.50;99.90;;;;;;4994304;28;20716;-46
2023/04/14 10:53:45;;;;;;;3.50;1.07;;;14.10;99.90;;;;;;4999507;28;20230;-47
2023/04/14 10:56:12;;;;;;;3.50;1.40;;;14.30;99.90;;;;;;4995486;28;20198;-46
2023/04/14 10:58:54;;;;;;;2.03;1.10;;;14.60;99.90;;;;;;5006010;28;20245;-47
2023/04/14 11:01:28;;;;;;;8.23;1.90;;;14.20;99.90;;;;;;4992077;28;20306;-45
2023/04/14 11:03:55;;;;;;;5.63;1.37;;;13.60;99.90;;;;;;5001987;28;20206;-47
2023/04/14 11:06:52;;;;;;;7.60;1.30;;;13.50;99.90;;;;;;5005921;28;20537;-46
2023/04/14 11:09:26;;;;;;;2.97;1.00;;;13.00;99.90;;;;;;5005310;28;20199;-47
2023/04/14 11:11:56;;;;;;;6.77;1.77;;;12.70;99.90;;;;;;5008927;28;20280;-46
2023/04/14 11:14:30;;;;;;;4.67;1.83;;;12.10;99.90;;;;;;4991657;28;20572;-46
2023/04/14 11:17:02;;;;;;;2.90;0.93;;;11.80;99.90;;;;;;5014100;28;20217;-46
2023/04/14 11:19:29;;;;;;;4.13;1.00;;;11.50;99.90;;;;;;5013616;28;20206;-46
2023/04/14 11:21:56;;;;;;;4.90;1.17;;;11.40;99.90;;;;;;5013656;28;20238;-46
2023/04/14 11:24:24;;;;;;;5.23;1.33;;;11.60;99.90;;;;;;4999934;28;20207;-46
2023/04/14 11:26:54;;;;;;;1.90;0.80;;;11.50;99.90;;;;;;5013824;28;20622;-46
2023/04/14 11:29:21;;;;;;;5.53;1.47;;;11.30;99.90;;;;;;5002827;28;20207;-46
2023/04/14 11:32:01;;;;;;;3.73;1.17;;;11.30;99.90;;;;;;5005891;28;20877;-47
2023/04/14 11:34:28;;;;;;;4.97;1.00;;;11.10;99.90;;;;;;5002776;28;20652;-47
2023/04/14 11:36:56;;;;;;;3.57;1.43;;;11.00;99.90;;;;;;5013519;28;20201;-47
2023/04/14 11:39:23;;;;;;;2.73;1.37;;;11.00;99.90;;;;;;4995339;28;20913;-46
2023/04/14 11:41:51;;;;;;;5.20;1.33;;;11.30;99.90;;;;;;5008313;28;20303;-45
2023/04/14 11:44:18;;;;;;;2.47;0.70;;;11.70;99.90;;;;;;5001207;28;20557;-46
2023/04/14 11:46:46;;;;;;;5.77;0.93;;;12.10;99.90;;;;;;4974519;28;20586;-47
2023/04/14 11:49:14;;;;;;;1.27;1.17;;;12.30;99.90;;;;;;4973800;28;20661;-46
2023/04/14 11:51:41;;;;;;;15.10;1.30;;;12.40;99.90;;;;;;4995294;28;20217;-47
2023/04/14 11:54:08;;;;;;;2.30;0.70;;;12.20;99.90;;;;;;4999630;28;20586;-45
2023/04/14 11:56:36;;;;;;;3.00;1.47;;;12.10;99.90;;;;;;5006673;28;20230;-45
2023/04/14 11:59:04;;;;;;;4.00;1.00;;;12.20;99.90;;;;;;4993550;28;20209;-46
2023/04/14 12:01:31;;;;;;;7.27;1.07;;;12.20;99.90;;;;;;4998054;28;20650;-46
2023/04/14 12:03:59;;;;;;;4.70;1.30;;;12.30;99.90;;;;;;4999599;28;20260;-47
2023/04/14 12:06:28;;;;;;;4.40;1.03;;;12.40;99.90;;;;;;4993439;28;20283;-46
2023/04/14 12:09:02;;;;;;;6.07;2.37;;;12.40;99.90;;;;;;4993384;28;20207;-46
2023/04/14 12:11:29;;;;;;;4.13;0.80;;;12.40;99.90;;;;;;5000759;28;20694;-46
2023/04/14 12:13:57;;;;;;;5.77;1.33;;;12.50;99.90;;;;;;5006249;28;20577;-46
2023/04/14 12:16:25;;;;;;;3.73;0.73;;;12.70;99.90;;;;;;5012795;28;20760;-46
2023/04/14 12:18:52;;;;;;;2.10;0.70;;;12.60;99.90;;;;;;4999333;28;20228;-46
2023/04/14 12:21:20;;;;;;;3.90;0.80;;;12.50;99.90;;;;;;4972703;28;20318;-46
2023/04/14 12:23:48;;;;;;;4.13;0.77;;;12.50;99.90;;;;;;4997229;28;20213;-45
2023/04/14 12:26:16;;;;;;;3.63;0.60;;;12.40;99.90;;;;;;4997444;28;20199;-45
2023/04/14 12:28:43;;;;;;;3.50;1.03;;;12.40;99.90;;;;;;4993890;28;20198;-45
2023/04/14 12:31:11;;;;;;;4.40;1.63;;;12.60;99.90;;;;;;4990089;28;20339;-46
2023/04/14 12:33:38;;;;;;;2.23;0.83;;;12.70;99.90;;;;;;4989135;28;20698;-45
2023/04/14 12:36:06;;;;;;;7.13;6.43;;;12.70;99.90;;;;;;4992796;28;20254;-45
2023/04/14 12:38:37;;;;;;;4.00;0.83;;;12.70;99.90;;;;;;4996935;28;20631;-45
2023/04/14 12:41:06;;;;;;;2.30;1.20;;;12.60;99.90;;;;;;4977569;28;20870;-45
2023/04/14 12:43:39;;;;;;;8.57;4.80;;;12.60;99.90;;;;;;4985662;28;20262;-45
2023/04/14 12:46:06;;;;;;;2.73;0.77;;;12.70;99.90;;;;;;4992615;28;20220;-45
2023/04/14 12:48:42;;;;;;;3.63;0.83;;;12.50;99.90;;;;;;4989085;28;20217;-45
2023/04/14 12:51:11;;;;;;;5.83;0.70;;;12.60;99.90;;;;;;4983189;28;20309;-45
2023/04/14 12:53:40;;;;;;;6.80;3.83;;;12.90;99.90;;;;;;4990457;28;20291;-45
2023/04/14 12:56:10;;;;;;;2.87;0.70;;;13.00;99.90;;;;;;4999443;28;20287;-45
2023/04/14 12:58:41;;;;;;;2.87;0.73;;;13.20;99.90;;;;;;5011416;28;20199;-45
2023/04/14 13:01:09;;;;;;;2.63;1.00;;;13.10;99.90;;;;;;5005650;28;20292;-46
2023/04/14 13:03:43;;;;;;;1.90;0.60;;;12.90;99.90;;;;;;5002855;28;20265;-46